Flight Track Log - Related Links

Times and Time Zones

All times are in EDT time to prevent confusion due to time zone crossing. See the N201LH flight status page for this flight to view local times or setup timezone preferences in your user account.

Time Position Orientation Groundspeed Altitude Reporting Facility
EDT Latitude Longitude Course Direction KTS MPH feet Rate Location/Type
Sat 12:46:00 PM 43.3796 -83.4788 157° South  Level FlightAware Approximate
Sat 12:47:00 PM 43.3333 -83.4522 157° South  Level FlightAware Approximate
Sat 12:48:00 PM 43.2869 -83.4257 157° South  Level FlightAware Approximate
Sat 12:49:00 PM 43.2513 -83.3894 148° Southeast  Level Estimated
Sat 12:50:00 PM 43.2076 -83.3792 170° South  Level FlightAware Approximate
Sat 12:51:00 PM 43.1639 -83.3690 170° South  Level FlightAware Approximate
Sat 12:52:00 PM 43.1201 -83.3588 170° South  Level FlightAware Approximate
Sat 12:53:00 PM 43.0764 -83.3486 170° South  Level FlightAware Approximate
Sat 12:54:00 PM 43.0326 -83.3384 170° South  Level FlightAware Approximate
Sat 12:54:33 PM 43.0217 -83.3181 152° Southeast 166 191 5,100  Level Cleveland Center
Sat 12:55:00 PM 42.9889 -83.3283 170° South  Level FlightAware Approximate
Sat 12:55:04 PM 43.0056 -83.2944 133° Southeast 165 190 5,000  Level Cleveland Center
Sat 12:56:00 PM 42.9452 -83.3182 170° South  Level FlightAware Approximate
Sat 12:56:05 PM 42.9733 -83.2506 135° Southeast 166 191 5,000  Level Cleveland Center
Sat 12:57:00 PM 42.9014 -83.3080 170° South  Level FlightAware Approximate
Sat 12:57:05 PM 42.9389 -83.2008 133° Southeast 164 189 5,000  Level Cleveland Center
Sat 12:58:00 PM 42.8682 -83.2679 150° Southeast  Level Estimated
Sat 12:58:06 PM 42.9064 -83.1656 142° Southeast 151 174 5,000  Level Cleveland Center
Sat 12:59:00 PM 42.8290 -83.2397 152° Southeast  Level FlightAware Approximate
Sat 12:59:07 PM 42.8697 -83.1272 143° Southeast 161 185 5,000  Level Cleveland Center
Sat 01:00:00 PM 42.7897 -83.2115 152° Southeast  Level FlightAware Approximate
Sat 01:00:08 PM 42.8331 -83.0889 143° Southeast 165 190 5,000  Level Cleveland Center
Sat 01:01:09 PM 42.7986 -83.0478 139° Southeast 161 185 5,000  Level Cleveland Center
Sat 01:02:10 PM 42.7639 -83.0097 141° Southeast 164 189 5,000  Level Cleveland Center
Sat 01:03:04 PM 42.7314 -82.9744 141° Southeast 161 185 5,000  Level Cleveland Center
Sat 01:04:05 PM 42.6947 -82.9364 143° Southeast 160 184 5,000  Level Cleveland Center
Sat 01:05:06 PM 42.6600 -82.8983 141° Southeast 163 188 5,000  Level Cleveland Center
Sat 01:06:19 PM 42.6169 -82.8517 141° Southeast 161 185 5,000  Level Cleveland Center
Sat 01:07:10 PM 42.5844 -82.8167 142° Southeast 161 185 5,000  Level Cleveland Center
Sat 01:08:14 PM 42.5497 -82.7758 139° Southeast 162 186 5,000  Level Cleveland Center
Sat 01:09:10 PM 42.5150 -82.7436 146° Southeast 160 184 5,000  Level Cleveland Center
Sat 01:10:03 PM 42.4844 -82.7061 138° Southeast 164 189 5,000  Level Cleveland Center
Sat 01:11:04 PM 42.4494 -82.6711 144° Southeast 163 188 5,000  Level Cleveland Center
Sat 01:12:05 PM 42.4128 -82.6306 141° Southeast 167 192 5,000  Level Cleveland Center
Sat 01:13:10 PM 42.3739 -82.5900 142° Southeast 172 198 5,000  Level Cleveland Center
Sat 01:14:10 PM 42.3369 -82.5522 143° Southeast 172 198 5,000  Level Cleveland Center
Sat 01:15:10 PM 42.3022 -82.5119 139° Southeast 172 198 5,000  Level Cleveland Center
Sat 01:16:10 PM 42.2675 -82.4744 141° Southeast 172 198 5,000  Level Cleveland Center
Sat 01:17:10 PM 42.2325 -82.4397 144° Southeast 172 198 5,000  Level Cleveland Center
Sat 01:18:10 PM 42.1956 -82.4019 143° Southeast 172 198 5,000  Level Cleveland Center
Sat 01:19:10 PM 42.1608 -82.3619 139° Southeast 172 198 5,000  Level Cleveland Center
Sat 01:20:10 PM 42.1261 -82.3244 141° Southeast 172 198 5,000 59 Level Cleveland Center
Sat 01:20:51 PM 42.0992 -82.3042 151° Southeast 162 186 5,100  Climbing Cleveland Center
Sat 01:21:10 PM 42.0911 -82.2872 123° Southeast 172 198 5,000  Descending Cleveland Center
Sat 01:21:52 PM 42.0664 -82.2614 142° Southeast 162 186 5,100  Climbing Cleveland Center
Sat 01:22:10 PM 42.0519 -82.2497 149° Southeast 172 198 5,000  Descending Cleveland Center
Sat 01:22:52 PM 42.0294 -82.2242 140° Southeast 161 185 5,100  Climbing Cleveland Center
Sat 01:23:10 PM 42.0214 -82.2128 134° Southeast 172 198 5,000  Descending Cleveland Center
Sat 01:23:53 PM 41.9947 -82.1867 144° Southeast 161 185 5,100 58 Climbing Cleveland Center
Sat 01:24:53 PM 41.9597 -82.1525 144° Southeast 161 185 5,100 -78 Level Cleveland Center
Sat 01:25:10 PM 41.9514 -82.1383 128° Southeast 167 192 5,000  Descending Cleveland Center
Sat 01:25:54 PM 41.9247 -82.1153 147° Southeast 162 186 5,100 100 Climbing Cleveland Center
Sat 01:26:10 PM 41.9164 -82.1039 135° Southeast 172 198 5,100  Level Cleveland Center
Sat 01:26:55 PM 41.8878 -82.0753 143° Southeast 162 186 5,100  Level Cleveland Center
Sat 01:27:10 PM 41.8836 -82.0669 124° Southeast 172 198 5,100  Level Cleveland Center
Sat 01:28:10 PM 41.8467 -82.0297 143° Southeast 172 198 5,100  Level Cleveland Center
Sat 01:28:56 PM 41.8158 -81.9983 143° Southeast 164 189 5,100 -150 Level Cleveland Center
Sat 01:30:10 PM 41.7811 -81.9364 127° Southeast 167 192 4,800 -393 Descending Cleveland Center
Sat 01:30:58 PM 41.7692 -81.8917 110° East 175 201 4,300 -500 Descending Cleveland Center
Sat 01:31:58 PM 41.7508 -81.8328 113° Southeast 165 190 3,900 -450 Descending Cleveland Center
Sat 01:32:58 PM 41.7350 -81.7769 111° Southeast 160 184 3,400 -397 Descending Cleveland Center
Sat 01:33:59 PM 41.7208 -81.7236 110° East 150 173 3,100 -149 Descending Cleveland Center
Sat 01:34:59 PM 41.7067 -81.6733 111° Southeast 143 165 3,100  Level Cleveland Center
Sat 01:36:00 PM 41.6925 -81.6258 112° Southeast 134 154 3,100  Level Cleveland Center
Sat 01:37:01 PM 41.6825 -81.5814 107° East 136 157 3,100  Level Cleveland Center
Sat 01:38:01 PM 41.6664 -81.5311 113° Southeast 136 157 3,100  Level Cleveland Center
Sat 01:39:02 PM 41.6417 -81.4972 134° Southeast 122 140 3,100  Level Cleveland Center
Sat 01:40:02 PM 41.6103 -81.4994 183° South 115 132 3,100  Level Cleveland Center
Sat 01:41:03 PM 41.5933 -81.5272 231° Southwest 97 112 3,100 -148 Level Cleveland Center
Sat 01:42:04 PM 41.5786 -81.5547 234° Southwest 86 99 2,800 -347 Descending Cleveland Center
Sat 01:43:04 PM 41.5681 -81.5767 237° Southwest 73 84 2,400 -400 Descending Cleveland Center

Login

Don't have an account? Register now (free) for customized features, flight alerts, and more!